KHVS/HVS METAR and TAF weather

Enter ICAO airport designator
Station Type Date Time Source
KHVS METAR 2020/01/23 18:15 UTC NOAA

KHVS 231815Z AUTO 04007KT 10SM CLR 07/M00 A3027 RMK AO2


Station Type Date Time Source
KHVS Decoded METAR 2020/01/23 18:15 UTC NOAA

Station name not available
Jan 23, 2020 - 01:15 PM EST / 2020.01.23 1815 UTC
Wind: from the NE (040 degrees) at 8 MPH (7 KT):0
Visibility: 10 mile(s):0
Sky conditions: clear
Temperature: 44 F (7 C)
Dew Point: 32 F (0 C)
Relative Humidity: 60%
Pressure (altimeter): 30.27 in. Hg (1025 hPa)
ob: KHVS 231815Z AUTO 04007KT 10SM CLR 07/M00 A3027 RMK AO2
cycle: 18

Station Type Date Time Source
KHVS TAF UTC NOAA

Error!

Example: see airport list